»·PEaware :: N441PW PAGA-CBC2

N441PW :: PAGA-CBC2

FLIGHT INFORMATION

Flight Status: Arrived
Operator: Privately registered:
United States
More flights under this callsign
Pilot: Stacy K. (11621)
Aircraft: CESSNA 404 TITAN
(C404)
More flights by this aircraft type
Origin: PAGA Pitka
United States
Destination: CBC2 Ford Bay
Canada
More flights between these airports :: More routes between these airports
Route: GAL T225 FECFO V488 TAL RAMPA TATTA FIORD VQ
File this flight plan on PilotEdge
Remarks: RMK / SIMBRIEF
Altitude:
(Current/Filed)
9,000ft
Speed:
(Current/Filed)
170kts
Departed: 04-May-19 02:47 PM
Arrived: 04-May-19 06:58 PM
Distance/Time
Traveled:
800nm/4:11
Distance/Time
To Go:
Arrived

Flight Plot

Page will automatically refresh every two minutes.


Map Options




Map Legend


Flown Route
Filed Route
Departure Airport
Arrival Airport
Navaid (VOR, NDB)
Fix

Horizontal Profiles

Position Reports

Time Latitude Longitude Heading Altitude Ground
Speed
04-May-19 14:33 64.738210 -156.948768 187 156ft 0kts
04-May-19 14:34 64.738210 -156.948768 187 156ft 0kts
04-May-19 14:35 64.738210 -156.948768 187 156ft 0kts
04-May-19 14:36 64.738210 -156.948768 187 156ft 0kts
04-May-19 14:37 64.738210 -156.948768 187 156ft 0kts
04-May-19 14:38 64.738210 -156.948768 187 156ft 0kts
04-May-19 14:40 64.738210 -156.948768 187 156ft 0kts
04-May-19 14:41 64.738210 -156.948768 187 156ft 0kts
04-May-19 14:42 64.738210 -156.948768 187 156ft 0kts
04-May-19 14:43 64.738210 -156.948768 187 156ft 0kts
04-May-19 14:44 64.738210 -156.948768 187 156ft 0kts
04-May-19 14:45 64.737714 -156.948254 167 156ft 11kts
04-May-19 14:46 64.735979 -156.955783 101 156ft 4kts
04-May-19 14:47 64.736506 -156.900173 88 772ft 134kts
04-May-19 14:48 64.737864 -156.800058 89 2036ft 166kts
04-May-19 14:49 64.748486 -156.692297 75 3168ft 166kts
04-May-19 14:50 64.760959 -156.589981 76 4057ft 161kts
04-May-19 14:51 64.773095 -156.489406 76 4950ft 160kts
04-May-19 14:52 64.785259 -156.387974 76 5856ft 164kts
04-May-19 14:53 64.797650 -156.283886 76 6761ft 166kts
04-May-19 14:54 64.810080 -156.178898 76 7658ft 167kts
04-May-19 14:55 64.822430 -156.073964 76 8554ft 165kts
04-May-19 14:56 64.832727 -155.970845 82 9449ft 160kts
04-May-19 14:57 64.840955 -155.867379 80 10350ft 160kts
04-May-19 14:58 64.849532 -155.762379 80 10974ft 174kts
04-May-19 14:59 64.860534 -155.643163 77 10974ft 193kts
04-May-19 15:00 64.873752 -155.519585 77 10972ft 195kts
04-May-19 15:00 64.884488 -155.415734 77 10970ft 195kts
04-May-19 15:02 64.899277 -155.270490 77 10971ft 196kts
04-May-19 15:03 64.911848 -155.145719 77 10971ft 196kts
04-May-19 15:03 64.922285 -155.041235 77 10981ft 195kts
04-May-19 15:05 64.936688 -154.895699 78 10982ft 196kts
04-May-19 15:06 64.948933 -154.770695 78 10982ft 195kts
04-May-19 15:06 64.959054 -154.666465 78 10982ft 195kts
04-May-19 15:07 64.971115 -154.541162 78 10983ft 195kts
04-May-19 15:08 64.983038 -154.416106 78 10982ft 195kts
04-May-19 15:09 64.994877 -154.290705 78 10982ft 195kts
04-May-19 15:10 65.006608 -154.165235 78 10982ft 195kts
04-May-19 15:11 65.018227 -154.039709 78 10982ft 195kts
04-May-19 15:12 65.029788 -153.913614 78 10984ft 201kts
04-May-19 15:13 65.041617 -153.783160 78 10983ft 203kts
04-May-19 15:14 65.053413 -153.651752 78 10987ft 203kts
04-May-19 15:15 65.065103 -153.519954 78 10988ft 204kts
04-May-19 15:16 65.076670 -153.388381 79 10990ft 204kts
04-May-19 15:17 65.088093 -153.256952 79 10991ft 204kts
04-May-19 15:18 65.099463 -153.124687 79 10992ft 204kts
04-May-19 15:19 65.110590 -152.993768 79 10994ft 203kts
04-May-19 15:20 65.121654 -152.862164 79 10996ft 203kts
04-May-19 15:21 65.132604 -152.730739 79 10997ft 203kts
04-May-19 15:22 65.143405 -152.598990 79 10998ft 203kts
04-May-19 15:23 65.154099 -152.467164 79 10998ft 203kts
04-May-19 15:24 65.164714 -152.334749 79 10999ft 203kts
04-May-19 15:25 65.175160 -152.202958 79 10999ft 203kts
04-May-19 15:26 65.186413 -152.071144 78 10999ft 203kts
04-May-19 15:27 65.198141 -151.939442 78 10999ft 203kts
04-May-19 15:28 65.209642 -151.807230 78 10999ft 203kts
04-May-19 15:29 65.221001 -151.674923 78 10999ft 203kts
04-May-19 15:30 65.232213 -151.542951 78 10998ft 203kts
04-May-19 15:31 65.237094 -151.485036 78 10998ft 203kts
04-May-19 15:32 65.254314 -151.278347 78 10998ft 202kts
04-May-19 15:33 65.265127 -151.146630 79 10997ft 202kts
04-May-19 15:34 65.275856 -151.014415 79 10996ft 202kts
04-May-19 15:35 65.286487 -150.881889 79 10995ft 202kts
04-May-19 15:36 65.296949 -150.749893 79 10994ft 202kts
04-May-19 15:37 65.307333 -150.617320 79 10993ft 202kts
04-May-19 15:38 65.317543 -150.485397 79 10991ft 201kts
04-May-19 15:39 65.327637 -150.353357 79 10999ft 201kts
04-May-19 15:40 65.337599 -150.221439 79 10997ft 201kts
04-May-19 15:41 65.347476 -150.088998 79 10997ft 201kts
04-May-19 15:42 65.357207 -149.956916 79 10996ft 201kts
04-May-19 15:43 65.366796 -149.824525 80 10995ft 201kts
04-May-19 15:44 65.374962 -149.691504 81 10997ft 201kts
04-May-19 15:45 65.382970 -149.558610 81 10985ft 202kts
04-May-19 15:46 65.390971 -149.425174 81 10979ft 201kts
04-May-19 15:47 65.398845 -149.291959 81 10979ft 201kts
04-May-19 15:48 65.406575 -149.159119 82 10997ft 201kts
04-May-19 15:49 65.414223 -149.025589 82 10978ft 202kts
04-May-19 15:50 65.421754 -148.891965 82 10974ft 201kts
04-May-19 15:51 65.429137 -148.758675 82 10974ft 201kts
04-May-19 15:52 65.436409 -148.625330 82 10973ft 200kts
04-May-19 15:53 65.443536 -148.492530 82 10973ft 200kts
04-May-19 15:54 65.450550 -148.359508 82 10973ft 200kts
04-May-19 15:55 65.457426 -148.226792 82 10973ft 200kts
04-May-19 15:56 65.464272 -148.093665 81 10973ft 200kts
04-May-19 15:57 65.473262 -147.960991 80 10974ft 200kts
04-May-19 15:58 65.482101 -147.828848 80 10972ft 200kts
04-May-19 15:59 65.490696 -147.696500 80 10972ft 200kts
04-May-19 16:00 65.499185 -147.563762 81 10975ft 200kts
04-May-19 16:01 65.507559 -147.430920 81 10976ft 200kts
04-May-19 16:02 65.515818 -147.297980 81 10977ft 201kts
04-May-19 16:03 65.523992 -147.164435 81 10976ft 201kts
04-May-19 16:04 65.532036 -147.030970 81 10976ft 201kts
04-May-19 16:05 65.539972 -146.897331 81 10977ft 202kts
04-May-19 16:06 65.547823 -146.763018 81 10978ft 202kts
04-May-19 16:07 65.555523 -146.629188 81 10976ft 201kts
04-May-19 16:08 65.563126 -146.494906 81 10977ft 201kts
04-May-19 16:09 65.570606 -146.360609 81 10979ft 202kts
04-May-19 16:10 65.577998 -146.225697 81 10980ft 202kts
04-May-19 16:11 65.585247 -146.091129 81 10982ft 202kts
04-May-19 16:12 65.592385 -145.956334 81 10984ft 202kts
04-May-19 16:13 65.599414 -145.821257 81 10985ft 202kts
04-May-19 16:14 65.606322 -145.686138 82 10993ft 202kts
04-May-19 16:15 65.613079 -145.551560 82 10995ft 202kts
04-May-19 16:16 65.619752 -145.416217 82 10992ft 203kts
04-May-19 16:17 65.626325 -145.280183 82 10993ft 203kts
04-May-19 16:18 65.632785 -145.144233 82 10995ft 203kts
04-May-19 16:19 65.639127 -145.008063 82 10995ft 203kts
04-May-19 16:20 65.645224 -144.874335 82 10994ft 203kts
04-May-19 16:21 65.651324 -144.737864 82 10994ft 204kts
04-May-19 16:22 65.657289 -144.601892 82 10993ft 204kts
04-May-19 16:23 65.663184 -144.464492 82 10992ft 205kts
04-May-19 16:24 65.668966 -144.326746 83 10991ft 205kts
04-May-19 16:25 65.674611 -144.189264 83 10989ft 205kts
04-May-19 16:26 65.680163 -144.050921 83 10988ft 205kts
04-May-19 16:27 65.685568 -143.913083 83 10986ft 205kts
04-May-19 16:28 65.690854 -143.775055 83 10990ft 205kts
04-May-19 16:29 65.696019 -143.636855 83 10989ft 205kts
04-May-19 16:30 65.701061 -143.498509 83 10987ft 205kts
04-May-19 16:31 65.705973 -143.360233 84 10985ft 205kts
04-May-19 16:32 65.710754 -143.222100 84 10984ft 205kts
04-May-19 16:33 65.715389 -143.084547 84 10999ft 204kts
04-May-19 16:34 65.719905 -142.946771 84 10997ft 204kts
04-May-19 16:35 65.724295 -142.809032 85 10995ft 204kts
04-May-19 16:36 65.728540 -142.671927 85 10994ft 203kts
04-May-19 16:37 65.732660 -142.534829 85 10992ft 203kts
04-May-19 16:38 65.736651 -142.397869 85 10990ft 202kts
04-May-19 16:39 65.740510 -142.261230 86 10989ft 203kts
04-May-19 16:40 65.744247 -142.124463 86 10987ft 203kts
04-May-19 16:41 65.747877 -141.987188 86 10986ft 204kts
04-May-19 16:42 65.751402 -141.849085 86 10980ft 204kts
04-May-19 16:43 65.754800 -141.711017 86 10998ft 204kts
04-May-19 16:44 65.758068 -141.573186 86 10998ft 203kts
04-May-19 16:45 65.761193 -141.436071 87 10998ft 203kts
04-May-19 16:46 65.764205 -141.298538 87 10998ft 203kts
04-May-19 16:47 65.767051 -141.162982 87 10997ft 202kts
04-May-19 16:48 65.769834 -141.024539 87 10987ft 202kts
04-May-19 16:49 65.771682 -140.888335 89 10986ft 201kts
04-May-19 16:50 65.772931 -140.752806 89 10986ft 200kts
04-May-19 16:51 65.774169 -140.617750 89 10986ft 199kts
04-May-19 16:52 65.775278 -140.484633 89 10985ft 194kts
04-May-19 16:53 65.776264 -140.353245 89 10985ft 193kts
04-May-19 16:54 65.777132 -140.222823 90 10985ft 192kts
04-May-19 16:55 65.777889 -140.092851 90 10986ft 192kts
04-May-19 16:56 65.778536 -139.962901 90 10986ft 191kts
04-May-19 16:57 65.779072 -139.832943 90 10986ft 191kts
04-May-19 16:58 65.779496 -139.703375 90 10990ft 192kts
04-May-19 16:59 65.779813 -139.573346 90 10991ft 192kts
04-May-19 17:00 65.780019 -139.443464 90 10992ft 192kts
04-May-19 17:01 65.780114 -139.313321 91 10995ft 191kts
04-May-19 17:02 65.780018 -139.183553 90 10998ft 192kts
04-May-19 17:03 65.779961 -139.053520 89 10995ft 192kts
04-May-19 17:04 65.779734 -138.921931 88 10994ft 196kts
04-May-19 17:05 65.779374 -138.788966 88 10993ft 197kts
04-May-19 17:06 65.778913 -138.655446 88 10994ft 197kts
04-May-19 17:07 65.778322 -138.521762 88 10988ft 197kts
04-May-19 17:08 65.777648 -138.388576 88 10991ft 196kts
04-May-19 17:09 65.776787 -138.255605 88 10989ft 196kts
04-May-19 17:10 65.776420 -138.202017 88 10989ft 196kts
04-May-19 17:39 65.700055 -134.323136 92 11030ft 205kts
04-May-19 17:39 65.696275 -134.208210 92 11030ft 205kts
04-May-19 17:41 65.690821 -134.046621 92 11028ft 206kts
04-May-19 17:42 65.686008 -133.908150 92 11029ft 206kts
04-May-19 17:42 65.681869 -133.792105 92 11000ft 206kts
04-May-19 17:43 65.676837 -133.654052 93 10999ft 205kts
04-May-19 17:45 65.670824 -133.493290 93 10998ft 205kts
04-May-19 17:45 65.666401 -133.378134 93 10991ft 205kts
04-May-19 17:46 65.661001 -133.240570 94 11007ft 205kts
04-May-19 17:47 65.655464 -133.102632 94 11006ft 205kts
04-May-19 17:48 65.650064 -132.965601 94 11204ft 198kts
04-May-19 17:49 65.644448 -132.835724 95 11876ft 192kts
04-May-19 17:50 65.638869 -132.706929 95 12557ft 193kts
04-May-19 17:51 65.633136 -132.575673 95 13083ft 202kts
04-May-19 17:52 65.626910 -132.436010 95 13089ft 211kts
04-May-19 17:53 65.620453 -132.294346 95 13090ft 212kts
04-May-19 17:54 65.613868 -132.152497 96 13091ft 212kts
04-May-19 17:55 65.607128 -132.010689 96 13092ft 212kts
04-May-19 17:56 65.600263 -131.868938 96 13093ft 212kts
04-May-19 17:57 65.593268 -131.727275 96 13094ft 212kts
04-May-19 17:58 65.586155 -131.586048 96 13096ft 212kts
04-May-19 17:59 65.578880 -131.444347 97 13097ft 212kts
04-May-19 18:00 65.571505 -131.303040 97 13098ft 212kts
04-May-19 18:01 65.563975 -131.161432 97 13099ft 212kts
04-May-19 18:02 65.561917 -131.123213 97 13100ft 212kts
04-May-19 18:03 65.548564 -130.879557 98 13102ft 211kts
04-May-19 18:04 65.540690 -130.739194 98 13103ft 210kts
04-May-19 18:05 65.532742 -130.599868 98 13104ft 209kts
04-May-19 18:06 65.526735 -130.496103 99 13105ft 209kts
04-May-19 18:11 65.482069 -129.761308 100 12052ft 224kts
04-May-19 18:12 65.472690 -129.613922 100 11186ft 218kts
04-May-19 18:13 65.463743 -129.475563 101 11110ft 204kts
04-May-19 18:14 65.454915 -129.341540 101 11111ft 202kts
04-May-19 18:15 65.446042 -129.208514 101 11112ft 202kts
04-May-19 18:16 65.437047 -129.075415 101 11112ft 201kts
04-May-19 18:17 65.427944 -128.942531 101 11112ft 201kts
04-May-19 18:18 65.418742 -128.810004 101 11112ft 200kts
04-May-19 18:19 65.409449 -128.677932 101 11117ft 200kts
04-May-19 18:20 65.400058 -128.546152 102 11118ft 200kts
04-May-19 18:21 65.396394 -128.414287 67 10987ft 210kts
04-May-19 18:22 65.427747 -128.291949 59 10312ft 217kts
04-May-19 18:23 65.456750 -128.186241 59 9717ft 217kts
04-May-19 18:26 65.562033 -127.814161 59 7656ft 209kts
04-May-19 18:27 65.594457 -127.701925 59 7610ft 199kts
04-May-19 18:28 65.625918 -127.592561 59 7617ft 197kts
04-May-19 18:29 65.657458 -127.482734 59 7528ft 201kts
04-May-19 18:30 65.679661 -127.404424 58 7060ft 207kts
04-May-19 18:31 65.717051 -127.272491 59 6285ft 206kts
04-May-19 18:32 65.749187 -127.158247 58 5601ft 203kts
04-May-19 18:33 65.780680 -127.045571 58 5037ft 198kts
04-May-19 18:34 65.810671 -126.937369 58 4972ft 189kts
04-May-19 18:35 65.840100 -126.831450 58 4973ft 188kts
04-May-19 18:36 65.869398 -126.726161 58 4978ft 187kts
04-May-19 18:37 65.898686 -126.620551 58 4978ft 187kts
04-May-19 18:38 65.927948 -126.514898 58 4980ft 187kts
04-May-19 18:39 65.957263 -126.408711 58 4981ft 187kts
04-May-19 18:40 65.986587 -126.302686 58 4983ft 187kts
04-May-19 18:41 66.016099 -126.196953 58 4984ft 188kts
04-May-19 18:42 66.040424 -126.084582 68 4984ft 186kts
04-May-19 18:43 66.061919 -125.968351 68 4987ft 186kts
04-May-19 18:44 66.083343 -125.852437 68 4986ft 186kts
04-May-19 18:45 66.104805 -125.736227 68 4989ft 186kts
04-May-19 18:46 66.126220 -125.619885 68 4991ft 186kts
04-May-19 18:47 66.147600 -125.503745 69 4990ft 185kts
04-May-19 18:48 66.166950 -125.385139 81 4734ft 191kts
04-May-19 18:49 66.173143 -125.254579 95 4077ft 189kts
04-May-19 18:50 66.158947 -125.133708 118 3421ft 180kts
04-May-19 18:51 66.130384 -125.033631 126 2995ft 172kts
04-May-19 18:52 66.103808 -124.971558 143 3164ft 99kts
04-May-19 18:53 66.079404 -124.929424 144 2704ft 111kts
04-May-19 18:54 66.056700 -124.885564 136 2346ft 105kts
04-May-19 18:55 66.041080 -124.828221 101 1864ft 105kts
04-May-19 18:56 66.039321 -124.758219 96 1114ft 89kts
04-May-19 18:57 66.037483 -124.716672 334 677ft 6kts
04-May-19 18:58 66.037483 -124.716672 334 677ft 6kts

Navigation Log

Ident Type
Flight plan parsing failed, navigation log unavailable